createdAt,value
2023-10-24T00:01:58.950Z,73.62
2023-10-24T00:04:30.117Z,73.35
2023-10-24T00:07:00.877Z,73.08
2023-10-24T00:09:31.597Z,73.15
2023-10-24T00:12:02.523Z,73.03
2023-10-24T00:14:33.159Z,72.64
2023-10-24T00:17:04.158Z,72.31
2023-10-24T00:19:35.004Z,72.69
2023-10-24T00:22:06.113Z,72.72
2023-10-24T00:24:36.793Z,72.90
2023-10-24T00:27:07.675Z,72.91
2023-10-24T00:29:38.382Z,73.72
2023-10-24T00:32:09.625Z,73.90
2023-10-24T00:34:40.768Z,73.69
2023-10-24T00:37:11.907Z,73.42
2023-10-24T00:39:45.716Z,73.72
2023-10-24T00:42:16.323Z,74.05
2023-10-24T00:44:46.935Z,74.37
2023-10-24T00:47:18.328Z,74.42
2023-10-24T00:49:49.311Z,74.35
2023-10-24T00:52:20.361Z,74.13
2023-10-24T00:54:51.409Z,74.19
2023-10-24T00:57:23.033Z,74.15
2023-10-24T00:59:54.363Z,74.22
2023-10-24T01:02:25.856Z,73.96
2023-10-24T01:05:01.183Z,74.01
2023-10-24T01:07:32.559Z,74.02
2023-10-24T01:10:03.283Z,73.75
2023-10-24T01:12:34.050Z,73.75
2023-10-24T01:15:05.265Z,73.64
2023-10-24T01:17:36.173Z,73.59
2023-10-24T01:20:09.233Z,73.45
2023-10-24T01:22:39.915Z,73.53
2023-10-24T01:25:15.659Z,73.33
2023-10-24T01:27:54.911Z,72.91
2023-10-24T01:30:25.950Z,72.69
2023-10-24T01:32:56.739Z,73.03
2023-10-24T01:35:27.503Z,73.27
2023-10-24T01:37:58.144Z,73.12
2023-10-24T01:40:29.007Z,73.11
2023-10-24T01:42:59.773Z,73.39
2023-10-24T01:45:30.582Z,73.31
2023-10-24T01:48:02.122Z,73.21
2023-10-24T01:50:32.905Z,73.05
2023-10-24T01:53:05.587Z,72.36
2023-10-24T01:55:36.838Z,72.29
2023-10-24T01:58:09.608Z,72.61
2023-10-24T02:00:40.286Z,73.06
2023-10-24T02:03:11.095Z,73.03
2023-10-24T02:05:42.551Z,72.91
2023-10-24T02:08:14.023Z,72.93
2023-10-24T02:10:45.140Z,73.14
2023-10-24T02:13:15.920Z,72.92
2023-10-24T02:15:47.251Z,72.41
2023-10-24T02:18:17.960Z,73.13
2023-10-24T02:20:48.594Z,73.55
2023-10-24T02:23:19.790Z,73.72
2023-10-24T02:25:50.545Z,74.00
2023-10-24T02:28:22.059Z,74.07
2023-10-24T02:30:53.140Z,73.83
2023-10-24T02:33:24.001Z,73.54
2023-10-24T02:35:55.789Z,73.53
2023-10-24T02:38:26.566Z,73.46
2023-10-24T02:40:57.963Z,73.65
2023-10-24T02:43:28.702Z,74.10
2023-10-24T02:46:03.301Z,74.49
2023-10-24T02:48:34.033Z,74.82
2023-10-24T02:51:04.909Z,75.44
2023-10-24T02:53:35.655Z,75.67
2023-10-24T02:56:06.927Z,75.52
2023-10-24T02:58:37.825Z,75.83
2023-10-24T03:01:08.718Z,75.83
2023-10-24T03:03:39.660Z,75.53
2023-10-24T03:06:16.309Z,75.53
2023-10-24T03:08:47.381Z,75.11
2023-10-24T03:11:25.172Z,74.71
2023-10-24T03:13:57.045Z,74.20
2023-10-24T03:16:27.778Z,73.79
2023-10-24T03:19:01.080Z,73.92
2023-10-24T03:21:31.909Z,73.54
2023-10-24T03:24:03.492Z,73.29
2023-10-24T03:26:34.373Z,73.07
2023-10-24T03:29:05.254Z,72.88
2023-10-24T03:31:37.830Z,72.71
2023-10-24T03:34:09.013Z,72.62
2023-10-24T03:36:39.693Z,72.46
2023-10-24T03:39:10.349Z,72.46
2023-10-24T03:41:40.958Z,72.25
2023-10-24T03:44:11.830Z,72.31
2023-10-24T03:46:42.794Z,72.48
2023-10-24T03:49:14.121Z,72.16
2023-10-24T03:51:45.399Z,72.06
2023-10-24T03:54:16.224Z,72.24
2023-10-24T03:56:46.930Z,71.98
2023-10-24T03:59:17.885Z,71.65
2023-10-24T04:01:48.836Z,71.86
2023-10-24T04:04:20.045Z,71.90
2023-10-24T04:06:51.074Z,71.62
2023-10-24T04:09:37.570Z,71.49
2023-10-24T04:12:09.945Z,71.33
2023-10-24T04:14:41.126Z,71.48
2023-10-24T04:17:12.193Z,71.26
2023-10-24T04:19:42.948Z,71.03
2023-10-24T04:22:14.389Z,71.25
2023-10-24T04:24:45.205Z,71.20
2023-10-24T04:27:15.978Z,71.17
2023-10-24T04:29:47.494Z,71.12
2023-10-24T04:32:18.133Z,71.22
2023-10-24T04:34:52.592Z,71.01
2023-10-24T04:37:41.752Z,71.24
2023-10-24T04:40:14.303Z,71.51
2023-10-24T04:42:45.230Z,71.41
2023-10-24T04:45:16.006Z,71.76
2023-10-24T04:47:46.688Z,71.29
2023-10-24T04:50:18.255Z,71.02
2023-10-24T04:52:51.181Z,71.15
2023-10-24T04:55:22.224Z,71.05
2023-10-24T04:57:53.525Z,71.09
2023-10-24T05:00:25.907Z,71.08
2023-10-24T05:02:57.107Z,70.90
2023-10-24T05:05:28.929Z,70.81
2023-10-24T05:07:59.757Z,70.85
2023-10-24T05:10:30.629Z,70.69
2023-10-24T05:13:02.279Z,70.49
2023-10-24T05:15:33.893Z,70.58
2023-10-24T05:18:05.251Z,70.50
2023-10-24T05:20:35.644Z,70.52
2023-10-24T05:23:06.655Z,70.40
2023-10-24T05:25:38.025Z,70.67
2023-10-24T05:28:09.170Z,70.47
2023-10-24T05:30:42.105Z,70.49
2023-10-24T05:33:12.918Z,70.53
2023-10-24T05:35:49.755Z,70.54
2023-10-24T05:38:20.462Z,70.53
2023-10-24T05:40:51.257Z,70.41
2023-10-24T05:43:22.008Z,70.38
2023-10-24T05:45:52.837Z,70.38
2023-10-24T05:48:23.756Z,70.62
2023-10-24T05:50:54.410Z,70.45
2023-10-24T05:53:25.083Z,69.96
2023-10-24T05:55:55.769Z,69.88
2023-10-24T05:58:26.600Z,70.03
2023-10-24T06:00:57.589Z,70.09
2023-10-24T06:03:28.668Z,70.21
2023-10-24T06:05:59.349Z,70.35
2023-10-24T06:08:30.012Z,70.33
2023-10-24T06:11:02.132Z,70.53
2023-10-24T06:13:34.058Z,70.49
2023-10-24T06:16:12.870Z,70.58
2023-10-24T06:18:43.935Z,70.62
2023-10-24T06:21:15.358Z,70.58
2023-10-24T06:23:46.342Z,70.57
2023-10-24T06:26:18.558Z,70.61
2023-10-24T06:28:49.573Z,70.56
2023-10-24T06:31:21.701Z,70.57
2023-10-24T06:33:52.581Z,70.65
2023-10-24T06:36:23.464Z,70.69
2023-10-24T06:38:54.257Z,70.78
2023-10-24T06:41:25.977Z,70.75
2023-10-24T06:43:56.734Z,70.79
2023-10-24T06:46:27.641Z,70.83
2023-10-24T06:48:58.507Z,70.78
2023-10-24T06:51:29.077Z,70.81
2023-10-24T06:53:59.792Z,70.83
2023-10-24T06:56:30.439Z,70.70
2023-10-24T06:59:01.254Z,70.77
2023-10-24T07:01:34.467Z,70.63
2023-10-24T07:04:06.156Z,70.70
2023-10-24T07:06:36.976Z,70.56
2023-10-24T07:09:07.627Z,70.45
2023-10-24T07:11:38.230Z,70.50
2023-10-24T07:14:09.138Z,70.39
2023-10-24T07:16:39.937Z,70.57
2023-10-24T07:19:10.890Z,70.27
2023-10-24T07:21:41.605Z,70.24
2023-10-24T07:24:13.347Z,70.04
2023-10-24T07:26:43.956Z,69.88
2023-10-24T07:29:14.660Z,69.70
2023-10-24T07:31:45.430Z,69.55
2023-10-24T07:34:16.106Z,69.49
2023-10-24T07:36:46.726Z,69.11
2023-10-24T07:39:18.292Z,68.90
2023-10-24T07:41:48.982Z,68.65
2023-10-24T07:44:20.000Z,68.27
2023-10-24T07:46:50.760Z,67.98
2023-10-24T07:49:21.711Z,67.80
2023-10-24T07:51:52.539Z,67.58
2023-10-24T07:54:23.267Z,67.31
2023-10-24T07:56:54.965Z,67.45
2023-10-24T07:59:27.203Z,67.32
2023-10-24T08:01:57.969Z,67.30
2023-10-24T08:04:29.037Z,67.43
2023-10-24T08:07:00.349Z,67.23
2023-10-24T08:09:31.136Z,67.56
2023-10-24T08:12:02.172Z,67.57
2023-10-24T08:14:32.812Z,67.60
2023-10-24T08:17:04.887Z,67.71
2023-10-24T08:19:35.819Z,67.59
2023-10-24T08:22:07.048Z,67.43
2023-10-24T08:24:37.832Z,67.32
2023-10-24T08:27:11.814Z,67.43
2023-10-24T08:29:43.199Z,67.21
2023-10-24T08:32:15.630Z,67.31
2023-10-24T08:34:47.268Z,66.89
2023-10-24T08:37:18.038Z,66.79
2023-10-24T08:39:48.791Z,66.76
2023-10-24T08:42:19.536Z,66.77
2023-10-24T08:44:52.277Z,66.66
2023-10-24T08:47:23.760Z,66.42
2023-10-24T08:49:56.230Z,66.17
2023-10-24T08:52:31.083Z,65.99
2023-10-24T08:55:05.240Z,66.05
2023-10-24T08:57:43.378Z,66.21
2023-10-24T09:00:16.609Z,66.14
2023-10-24T09:02:48.365Z,66.14
2023-10-24T09:05:19.987Z,66.13
2023-10-24T09:07:50.647Z,65.84
2023-10-24T09:10:22.570Z,65.99
2023-10-24T09:12:55.782Z,65.62
2023-10-24T09:15:26.921Z,65.56
2023-10-24T09:17:59.121Z,65.60
2023-10-24T09:20:31.189Z,65.73
2023-10-24T09:23:07.638Z,66.04
2023-10-24T09:25:39.184Z,66.07
2023-10-24T09:28:22.826Z,66.35
2023-10-24T09:30:53.703Z,66.67
2023-10-24T09:33:25.854Z,66.84
2023-10-24T09:36:11.371Z,67.05
2023-10-24T09:38:46.061Z,67.21
2023-10-24T09:41:18.194Z,67.34
2023-10-24T09:43:50.865Z,67.46
2023-10-24T09:46:24.209Z,67.47
2023-10-24T09:48:57.493Z,67.34
2023-10-24T09:51:29.158Z,67.41
2023-10-24T09:54:00.633Z,67.47
2023-10-24T09:56:31.623Z,67.58
2023-10-24T09:59:05.199Z,67.54
2023-10-24T10:01:36.823Z,67.47
2023-10-24T10:04:09.166Z,67.39
2023-10-24T10:06:57.464Z,67.33
2023-10-24T10:09:29.146Z,67.15
2023-10-24T10:12:02.342Z,67.22
2023-10-24T10:14:40.802Z,67.12
2023-10-24T10:17:20.899Z,67.15
2023-10-24T10:20:15.119Z,67.01
2023-10-24T10:23:01.406Z,66.82
2023-10-24T10:26:07.633Z,66.94
2023-10-24T10:29:05.899Z,66.81
2023-10-24T10:32:36.241Z,66.53
2023-10-24T10:34:56.694Z,66.25
2023-10-24T10:37:32.110Z,66.24
2023-10-24T10:40:31.922Z,66.25
2023-10-24T10:43:03.535Z,66.10
2023-10-24T10:45:35.291Z,66.07
2023-10-24T10:48:07.857Z,66.18
2023-10-24T10:50:40.309Z,66.26
2023-10-24T10:53:38.784Z,66.24
2023-10-24T10:56:31.876Z,66.34
2023-10-24T10:59:32.878Z,66.64
2023-10-24T11:02:20.097Z,66.48
2023-10-24T11:04:53.200Z,66.57
2023-10-24T11:07:59.548Z,66.84
2023-10-24T11:10:54.115Z,67.19
2023-10-24T11:13:42.758Z,67.31
2023-10-24T11:16:30.009Z,67.25
2023-10-24T11:19:01.343Z,67.36
2023-10-24T11:21:32.170Z,67.51
2023-10-24T11:24:03.826Z,67.74
2023-10-24T11:26:34.645Z,67.61
2023-10-24T11:29:05.654Z,67.66
2023-10-24T11:31:36.419Z,67.89
2023-10-24T11:34:07.551Z,67.98
2023-10-24T11:36:38.245Z,67.93
2023-10-24T11:39:10.913Z,67.83
2023-10-24T11:41:41.770Z,67.77
2023-10-24T11:44:15.844Z,68.03
2023-10-24T11:46:47.070Z,68.01
2023-10-24T11:49:18.165Z,68.05
2023-10-24T11:51:50.224Z,68.03
2023-10-24T11:54:21.079Z,68.12
2023-10-24T11:56:51.924Z,68.20
2023-10-24T11:59:22.736Z,68.28
2023-10-24T12:01:53.522Z,68.49
2023-10-24T12:04:24.306Z,68.64
2023-10-24T12:07:04.291Z,68.85
2023-10-24T12:09:37.219Z,68.75
2023-10-24T12:12:08.861Z,68.86
2023-10-24T12:14:39.652Z,68.90
2023-10-24T12:17:13.034Z,68.96
2023-10-24T12:19:44.085Z,68.90
2023-10-24T12:22:16.566Z,68.90
2023-10-24T12:24:47.280Z,69.00
2023-10-24T12:27:18.007Z,69.01
2023-10-24T12:29:48.794Z,68.71
2023-10-24T12:32:19.973Z,68.64
2023-10-24T12:34:50.839Z,68.98
2023-10-24T12:37:21.834Z,68.98
2023-10-24T12:39:54.602Z,68.91
2023-10-24T12:42:25.454Z,69.09
2023-10-24T12:44:56.294Z,69.18
2023-10-24T12:47:27.171Z,69.12
2023-10-24T12:49:58.410Z,69.06
2023-10-24T12:52:29.252Z,69.05
2023-10-24T12:55:00.029Z,69.08
2023-10-24T12:57:30.991Z,69.07
2023-10-24T13:00:01.866Z,69.13
2023-10-24T13:02:32.571Z,69.16
2023-10-24T13:05:03.349Z,69.35
2023-10-24T13:07:34.627Z,69.35
2023-10-24T13:10:07.407Z,69.51
2023-10-24T13:12:38.350Z,69.55
2023-10-24T13:15:11.180Z,69.59
2023-10-24T13:17:42.158Z,69.56
2023-10-24T13:20:14.729Z,69.57
2023-10-24T13:22:43.814Z,69.86
2023-10-24T13:25:14.988Z,69.78
2023-10-24T13:27:45.593Z,69.90
2023-10-24T13:30:29.260Z,70.08
2023-10-24T13:33:08.070Z,70.19
2023-10-24T13:38:12.750Z,70.28
2023-10-24T13:40:43.573Z,70.32
2023-10-24T13:43:14.409Z,70.15
2023-10-24T13:45:45.372Z,70.22
2023-10-24T13:48:16.061Z,70.22
2023-10-24T13:50:46.776Z,70.19
2023-10-24T13:53:17.644Z,70.25
2023-10-24T13:55:48.523Z,70.14
2023-10-24T13:58:19.222Z,70.14
2023-10-24T14:00:50.223Z,70.29
2023-10-24T14:03:21.193Z,70.36
2023-10-24T14:05:52.151Z,70.38
2023-10-24T14:08:22.990Z,70.45
2023-10-24T14:10:53.695Z,70.59
2023-10-24T14:13:24.662Z,70.68
2023-10-24T14:15:55.757Z,70.85
2023-10-24T14:18:26.587Z,70.87
2023-10-24T14:20:57.432Z,70.91
2023-10-24T14:23:28.137Z,70.97
2023-10-24T14:25:59.302Z,71.07
2023-10-24T14:28:30.019Z,71.00
2023-10-24T14:31:00.805Z,71.17
2023-10-24T14:33:31.625Z,71.21
2023-10-24T14:36:02.717Z,71.28
2023-10-24T14:38:33.494Z,71.50
2023-10-24T14:41:04.432Z,71.75
2023-10-24T14:43:36.500Z,71.91
2023-10-24T14:46:07.887Z,71.92
2023-10-24T14:48:38.619Z,72.12
2023-10-24T14:51:10.356Z,72.36
2023-10-24T14:53:41.050Z,72.49
2023-10-24T14:56:11.788Z,72.55
2023-10-24T14:58:42.986Z,72.69
2023-10-24T15:01:16.615Z,72.75
2023-10-24T15:03:47.635Z,73.02
2023-10-24T15:06:18.490Z,73.15
2023-10-24T15:08:49.210Z,73.20
2023-10-24T15:11:19.889Z,73.30
2023-10-24T15:13:51.074Z,73.27
2023-10-24T15:16:22.298Z,73.28
2023-10-24T15:18:54.200Z,73.50
2023-10-24T15:21:25.022Z,73.50
2023-10-24T15:23:55.681Z,73.46
2023-10-24T15:26:26.602Z,73.67
2023-10-24T15:28:57.363Z,73.72
2023-10-24T15:31:28.073Z,73.88
2023-10-24T15:33:58.734Z,74.05
2023-10-24T15:36:35.672Z,74.16
2023-10-24T15:39:07.385Z,74.15
2023-10-24T15:41:38.313Z,74.22
2023-10-24T15:44:09.382Z,74.33
2023-10-24T15:46:43.421Z,74.40
2023-10-24T15:49:14.179Z,74.41
2023-10-24T15:51:46.841Z,74.49
2023-10-24T15:54:17.477Z,74.74
2023-10-24T15:56:48.284Z,74.70
2023-10-24T15:59:19.300Z,75.20
2023-10-24T16:01:51.269Z,75.68
2023-10-24T16:04:22.356Z,75.88
2023-10-24T16:06:53.107Z,75.99
2023-10-24T16:09:24.006Z,76.40
2023-10-24T16:11:54.830Z,76.65
2023-10-24T16:14:25.566Z,77.24
2023-10-24T16:16:56.281Z,77.41
2023-10-24T16:19:27.606Z,77.70
2023-10-24T16:21:58.314Z,78.00
2023-10-24T16:24:28.996Z,78.26
2023-10-24T16:27:01.253Z,78.56
2023-10-24T16:29:31.980Z,78.77
2023-10-24T16:32:02.781Z,79.20
2023-10-24T16:34:33.565Z,79.80
2023-10-24T16:37:04.560Z,80.24
2023-10-24T16:39:35.288Z,80.50
2023-10-24T16:42:07.206Z,80.52
2023-10-24T16:44:38.019Z,80.68
2023-10-24T16:47:09.180Z,80.85
2023-10-24T16:49:40.024Z,81.00
2023-10-24T16:52:11.041Z,81.00
2023-10-24T16:54:42.392Z,80.83
2023-10-24T16:57:13.300Z,80.89
2023-10-24T16:59:44.012Z,81.07
2023-10-24T17:02:14.909Z,80.97
2023-10-24T17:04:45.716Z,80.70
2023-10-24T17:07:16.566Z,80.62
2023-10-24T17:09:47.232Z,80.40
2023-10-24T17:12:17.881Z,80.51
2023-10-24T17:14:49.337Z,80.66
2023-10-24T17:17:20.374Z,80.93
2023-10-24T17:19:51.245Z,81.01
2023-10-24T17:22:24.829Z,81.40
2023-10-24T17:24:55.603Z,81.57
2023-10-24T17:27:26.305Z,81.67
2023-10-24T17:29:57.610Z,81.75
2023-10-24T17:32:28.893Z,81.93
2023-10-24T17:34:59.940Z,82.27
2023-10-24T17:37:30.733Z,82.47
2023-10-24T17:40:02.648Z,82.60
2023-10-24T17:42:34.440Z,82.71
2023-10-24T17:45:06.046Z,82.92
2023-10-24T17:47:37.099Z,82.94
2023-10-24T17:50:09.576Z,83.03
2023-10-24T17:52:40.307Z,82.93
2023-10-24T17:55:11.906Z,82.82
2023-10-24T17:57:43.110Z,82.74
2023-10-24T18:00:16.329Z,82.45
2023-10-24T18:02:47.162Z,82.29
2023-10-24T18:05:18.130Z,82.01
2023-10-24T18:07:49.372Z,81.99
2023-10-24T18:10:20.398Z,81.85
2023-10-24T18:12:51.102Z,81.75
2023-10-24T18:15:23.018Z,81.81
2023-10-24T18:17:56.651Z,81.66
2023-10-24T18:20:27.667Z,81.61
2023-10-24T18:22:58.343Z,81.43
2023-10-24T18:25:29.287Z,81.23
2023-10-24T18:28:00.280Z,81.19
2023-10-24T18:30:32.498Z,81.31
2023-10-24T18:33:03.257Z,81.29
2023-10-24T18:35:34.021Z,81.23
2023-10-24T18:38:05.087Z,81.22
2023-10-24T18:40:37.250Z,80.89
2023-10-24T18:43:08.951Z,80.66
2023-10-24T18:45:39.685Z,80.83
2023-10-24T18:48:10.717Z,80.74
2023-10-24T18:50:44.534Z,80.73
2023-10-24T18:53:15.555Z,80.59
2023-10-24T18:55:47.414Z,80.37
2023-10-24T18:58:18.269Z,80.36
2023-10-24T19:00:49.162Z,80.17
2023-10-24T19:03:29.117Z,80.21
2023-10-24T19:06:00.394Z,80.30
2023-10-24T19:08:31.181Z,80.55
2023-10-24T19:11:02.850Z,80.61
2023-10-24T19:13:37.532Z,80.36
2023-10-24T19:16:12.529Z,80.40
2023-10-24T19:18:44.370Z,80.30
2023-10-24T19:21:16.288Z,80.56
2023-10-24T19:23:48.929Z,80.65
2023-10-24T19:26:20.511Z,80.51
2023-10-24T19:28:52.467Z,80.35
2023-10-24T19:31:24.390Z,80.28
2023-10-24T19:33:57.396Z,80.39
2023-10-24T19:36:28.756Z,80.49
2023-10-24T19:39:01.402Z,80.30
2023-10-24T19:41:33.866Z,80.52
2023-10-24T19:44:06.319Z,80.45
2023-10-24T19:46:42.100Z,80.66
2023-10-24T19:49:13.751Z,80.55
2023-10-24T19:51:46.038Z,80.42
2023-10-24T19:54:18.146Z,80.60
2023-10-24T19:56:49.161Z,80.70
2023-10-24T19:59:21.407Z,80.72
2023-10-24T20:01:53.722Z,80.91
2023-10-24T20:04:26.764Z,80.94
2023-10-24T20:06:59.381Z,81.06
2023-10-24T20:10:42.035Z,80.93
2023-10-24T20:12:36.028Z,80.96
2023-10-24T20:15:13.022Z,81.15
2023-10-24T20:17:45.562Z,81.15
2023-10-24T20:20:15.725Z,81.39
2023-10-24T20:22:48.041Z,81.52
2023-10-24T20:25:19.473Z,81.31
2023-10-24T20:27:50.824Z,81.48
2023-10-24T20:30:21.734Z,81.28
2023-10-24T20:32:53.333Z,81.25
2023-10-24T20:35:27.754Z,81.41
2023-10-24T20:37:58.837Z,81.20
2023-10-24T20:40:29.498Z,81.45
2023-10-24T20:43:00.484Z,81.22
2023-10-24T20:45:31.330Z,81.12
2023-10-24T20:48:02.126Z,81.35
2023-10-24T20:50:33.079Z,81.54
2023-10-24T20:53:03.700Z,81.35
2023-10-24T20:55:34.415Z,81.45
2023-10-24T20:58:05.132Z,81.68
2023-10-24T21:00:36.463Z,81.85
2023-10-24T21:03:07.365Z,81.84
2023-10-24T21:05:39.252Z,81.95
2023-10-24T21:08:10.055Z,82.04
2023-10-24T21:10:40.754Z,81.91
2023-10-24T21:13:11.419Z,81.95
2023-10-24T21:15:44.020Z,81.83
2023-10-24T21:18:13.689Z,81.84
2023-10-24T21:20:44.330Z,81.68
2023-10-24T21:23:15.072Z,81.81
2023-10-24T21:25:45.847Z,81.83
2023-10-24T21:28:16.675Z,81.71
2023-10-24T21:30:47.488Z,81.94
2023-10-24T21:33:18.284Z,82.14
2023-10-24T21:35:49.874Z,82.39
2023-10-24T21:38:20.539Z,82.66
2023-10-24T21:40:55.683Z,82.82
2023-10-24T21:43:27.337Z,82.95
2023-10-24T21:46:07.416Z,83.17
2023-10-24T21:48:38.805Z,83.44
2023-10-24T21:51:09.901Z,83.46
2023-10-24T21:53:40.540Z,83.51
2023-10-24T21:56:17.105Z,83.66
2023-10-24T21:58:48.013Z,83.74
2023-10-24T22:01:19.637Z,83.82
2023-10-24T22:03:50.584Z,83.87
2023-10-24T22:06:21.750Z,83.97
2023-10-24T22:08:52.369Z,84.29
2023-10-24T22:11:23.715Z,84.30
2023-10-24T22:13:54.616Z,84.44
2023-10-24T22:16:25.393Z,84.61
2023-10-24T22:18:56.155Z,84.70
2023-10-24T22:21:26.948Z,84.81
2023-10-24T22:23:57.753Z,84.93
2023-10-24T22:26:28.449Z,85.00
2023-10-24T22:28:59.185Z,84.97
2023-10-24T22:31:29.851Z,84.99
2023-10-24T22:34:00.646Z,85.00
2023-10-24T22:36:31.391Z,84.94
2023-10-24T22:39:02.158Z,84.98
2023-10-24T22:41:32.941Z,84.79
2023-10-24T22:44:03.529Z,84.79
2023-10-24T22:46:34.403Z,84.80
2023-10-24T22:49:05.597Z,84.89
2023-10-24T22:51:36.426Z,84.81
2023-10-24T22:54:08.215Z,84.58
2023-10-24T22:56:38.898Z,84.54
2023-10-24T22:59:09.566Z,84.57
2023-10-24T23:01:40.604Z,84.44
2023-10-24T23:04:11.251Z,84.36
2023-10-24T23:06:41.952Z,84.39
2023-10-24T23:09:12.841Z,84.16
2023-10-24T23:11:43.517Z,84.01
2023-10-24T23:14:14.327Z,83.82
2023-10-24T23:16:45.094Z,83.80
2023-10-24T23:19:16.030Z,83.82
2023-10-24T23:21:46.712Z,83.74
2023-10-24T23:24:17.442Z,83.61
2023-10-24T23:26:48.076Z,83.83
2023-10-24T23:29:18.828Z,83.69
2023-10-24T23:31:49.942Z,83.58
2023-10-24T23:34:20.755Z,83.55
2023-10-24T23:36:51.557Z,83.50
2023-10-24T23:39:22.283Z,83.41
2023-10-24T23:41:53.006Z,83.41
2023-10-24T23:44:23.893Z,83.39
2023-10-24T23:46:55.018Z,83.27
2023-10-24T23:49:25.887Z,83.18
2023-10-24T23:51:56.698Z,83.22
2023-10-24T23:54:27.365Z,83.36
2023-10-24T23:56:58.233Z,83.45
2023-10-24T23:59:29.847Z,83.41
